Time;durP1;ratioP1;P1;durP2;ratioP2;P2;SDS_P1;SDS_P2;PMS_P1;PMS_P2;Temp;Humidity;BMP_temperature;BMP_pressure;BME280_temperature;BME280_humidity;BME280_pressure;Samples;Min_cycle;Max_cycle;Signal;HPM_P1;HPM_P2
2022/01/23 00:00:05;;;;;;;23.10;14.07;;;6.50;84.60;;;;;;5085426;28;20229;-69
2022/01/23 00:02:38;;;;;;;26.63;14.88;;;6.50;84.40;;;;;;5078035;28;20220;-68
2022/01/23 00:05:08;;;;;;;20.98;13.88;;;6.50;84.50;;;;;;5085217;28;20234;-70
2022/01/23 00:07:38;;;;;;;22.23;14.10;;;6.50;84.60;;;;;;5082228;28;20213;-69
2022/01/23 00:10:09;;;;;;;22.02;13.73;;;6.50;84.60;;;;;;5077582;28;20215;-68
2022/01/23 00:12:44;;;;;;;19.50;13.07;;;6.50;84.60;;;;;;5070130;28;20201;-68
2022/01/23 00:17:59;;;;;;;22.85;14.25;;;6.50;84.60;;;;;;5094174;28;20226;-68
2022/01/23 00:20:27;;;;;;;22.08;13.65;;;6.50;84.50;;;;;;5084421;28;20196;-69
2022/01/23 00:22:58;;;;;;;23.10;13.73;;;6.50;84.50;;;;;;5101706;27;20273;-69
2022/01/23 00:31:00;;;;;;;26.30;15.15;;;6.50;84.60;;;;;;5093914;28;20293;-68
2022/01/23 00:33:28;;;;;;;23.20;13.20;;;6.50;84.60;;;;;;5082842;28;20230;-69
2022/01/23 00:35:56;;;;;;;23.40;13.95;;;6.50;84.60;;;;;;5100612;28;20210;-68
2022/01/23 00:38:24;;;;;;;24.85;14.10;;;6.50;84.50;;;;;;5100587;28;20202;-69
2022/01/23 00:40:52;;;;;;;24.95;14.65;;;6.50;84.50;;;;;;5096211;28;20213;-71
2022/01/23 00:43:28;;;;;;;24.63;14.88;;;6.50;84.60;;;;;;5099441;28;20224;-71
2022/01/23 00:46:09;;;;;;;21.55;13.82;;;6.50;84.60;;;;;;5103784;28;20233;-70
2022/01/23 00:48:50;;;;;;;23.33;13.60;;;6.50;84.60;;;;;;5104685;28;20279;-70
2022/01/23 00:51:19;;;;;;;23.52;13.40;;;6.50;84.50;;;;;;5105364;28;20617;-70
2022/01/23 00:53:47;;;;;;;25.70;14.18;;;6.50;84.50;;;;;;5082150;28;20285;-68
2022/01/23 00:56:15;;;;;;;20.08;12.80;;;6.50;84.50;;;;;;5084749;28;20209;-67
2022/01/23 00:58:44;;;;;;;25.35;15.65;;;6.50;84.50;;;;;;5106520;28;20213;-68
2022/01/23 01:01:15;;;;;;;21.27;13.60;;;6.50;84.50;;;;;;5106628;28;20219;-71
2022/01/23 01:03:44;;;;;;;25.38;14.45;;;6.50;84.50;;;;;;5097793;28;20610;-70
2022/01/23 01:06:12;;;;;;;21.85;13.93;;;6.50;84.50;;;;;;5101244;28;20202;-70
2022/01/23 01:08:42;;;;;;;27.73;15.00;;;6.50;84.50;;;;;;5080905;28;20202;-70
2022/01/23 01:11:33;;;;;;;25.23;13.70;;;6.50;84.50;;;;;;5095986;28;20680;-71
2022/01/23 01:14:21;;;;;;;23.20;13.70;;;6.50;84.50;;;;;;5104324;27;20250;-70
2022/01/23 01:16:59;;;;;;;25.00;13.48;;;6.50;84.50;;;;;;5102542;27;20258;-71
2022/01/23 01:30:47;;;;;;;22.25;13.90;;;6.40;84.50;;;;;;5056697;27;20237;-68
2022/01/23 01:33:24;;;;;;;25.38;14.70;;;6.40;84.50;;;;;;5104659;27;20902;-68
2022/01/23 01:35:57;;;;;;;26.55;14.68;;;6.40;84.50;;;;;;5106921;27;20297;-71
2022/01/23 01:38:25;;;;;;;32.15;17.02;;;6.40;84.50;;;;;;5090418;27;20198;-70
2022/01/23 01:40:55;;;;;;;30.42;16.75;;;6.40;84.40;;;;;;5076621;27;20216;-71
2022/01/23 01:43:26;;;;;;;29.10;16.13;;;6.40;84.40;;;;;;5089042;27;20230;-70
2022/01/23 01:45:55;;;;;;;26.48;16.50;;;6.40;84.50;;;;;;5094965;27;20240;-70
2022/01/23 01:48:35;;;;;;;23.70;14.68;;;6.40;84.50;;;;;;5109513;27;20856;-71
2022/01/23 01:51:13;;;;;;;28.88;14.95;;;6.40;84.50;;;;;;5101310;27;20293;-71
2022/01/23 01:53:47;;;;;;;24.15;14.43;;;6.40;84.50;;;;;;5078322;27;20221;-70
2022/01/23 01:56:15;;;;;;;22.65;14.30;;;6.40;84.50;;;;;;5077095;28;20212;-71
2022/01/23 02:10:29;;;;;;;21.25;13.73;;;6.40;84.40;;;;;;5093216;27;20248;-71
2022/01/23 02:13:07;;;;;;;25.85;14.50;;;6.40;84.40;;;;;;5100658;27;20256;-72
2022/01/23 02:52:28;;;;;;;21.63;13.20;;;6.30;84.50;;;;;;5087400;27;20217;-71
2022/01/23 02:55:08;;;;;;;23.67;14.50;;;6.30;84.50;;;;;;5100464;27;20224;-71
2022/01/23 02:57:51;;;;;;;22.77;12.68;;;6.30;84.50;;;;;;5099582;27;20206;-70
2022/01/23 03:00:24;;;;;;;25.45;14.40;;;6.30;84.50;;;;;;5082662;27;20298;-72
2022/01/23 03:03:14;;;;;;;22.77;13.70;;;6.30;84.50;;;;;;5098962;27;20258;-68
2022/01/23 03:06:17;;;;;;;20.58;12.77;;;6.30;84.50;;;;;;5087784;27;20238;-71
2022/01/23 03:09:09;;;;;;;21.25;12.93;;;6.30;84.40;;;;;;5100748;27;20201;-71
2022/01/23 03:12:06;;;;;;;17.52;11.63;;;6.30;84.30;;;;;;5105303;27;21049;-70
2022/01/23 03:14:45;;;;;;;20.13;11.52;;;6.30;84.40;;;;;;5088056;27;20279;-72
2022/01/23 03:28:21;;;;;;;21.40;12.20;;;6.20;84.50;;;;;;5092009;28;20211;-69
2022/01/23 03:31:04;;;;;;;21.80;12.70;;;6.30;84.50;;;;;;5061085;28;20226;-69
2022/01/23 03:33:33;;;;;;;16.70;11.20;;;6.30;84.50;;;;;;5102037;27;20276;-68
2022/01/23 03:36:01;;;;;;;20.58;12.00;;;6.30;84.50;;;;;;5100885;27;20206;-68
2022/01/23 03:38:29;;;;;;;24.23;13.35;;;6.30;84.50;;;;;;5109314;27;20212;-68
2022/01/23 03:40:57;;;;;;;19.02;11.15;;;6.30;84.50;;;;;;5107619;27;20202;-68
2022/01/23 03:43:29;;;;;;;21.35;12.10;;;6.30;84.40;;;;;;5096192;27;20219;-69
2022/01/23 03:46:21;;;;;;;20.55;11.98;;;6.30;84.40;;;;;;5096999;27;20241;-67
2022/01/23 03:51:39;;;;;;;22.95;12.68;;;6.20;84.40;;;;;;5083766;27;20223;-69
2022/01/23 03:54:07;;;;;;;18.48;11.07;;;6.30;84.40;;;;;;5086754;27;20229;-68
2022/01/23 03:56:35;;;;;;;23.40;11.65;;;6.20;84.40;;;;;;5085841;28;20213;-69
2022/01/23 03:59:05;;;;;;;21.15;12.05;;;6.20;84.40;;;;;;5093662;28;20263;-68
2022/01/23 04:01:33;;;;;;;22.55;13.77;;;6.20;84.40;;;;;;5068119;28;20231;-68
2022/01/23 04:04:06;;;;;;;20.25;12.60;;;6.20;84.40;;;;;;5069356;28;20230;-69
2022/01/23 04:06:34;;;;;;;22.83;13.77;;;6.20;84.40;;;;;;5086849;28;20225;-69
2022/01/23 04:09:03;;;;;;;28.60;14.25;;;6.20;84.40;;;;;;5060322;28;20302;-68
2022/01/23 04:11:31;;;;;;;22.65;15.43;;;6.20;84.40;;;;;;5084095;28;20931;-68
2022/01/23 04:14:04;;;;;;;23.88;14.18;;;6.30;84.40;;;;;;5053924;28;20225;-68
2022/01/23 04:17:03;;;;;;;22.77;13.25;;;6.20;84.40;;;;;;5072678;28;20236;-71
2022/01/23 04:19:40;;;;;;;26.02;15.63;;;6.20;84.40;;;;;;5071171;28;20203;-69
2022/01/23 04:33:31;;;;;;;28.40;15.25;;;6.20;84.40;;;;;;5090689;28;20436;-70
2022/01/23 04:48:01;;;;;;;27.58;14.85;;;6.20;84.30;;;;;;5095841;27;20267;-69
2022/01/23 05:01:24;;;;;;;27.60;15.90;;;6.20;84.50;;;;;;5093706;27;20938;-68
2022/01/23 05:04:11;;;;;;;24.35;13.93;;;6.20;84.50;;;;;;5096893;27;20824;-69
2022/01/23 05:07:01;;;;;;;19.90;12.77;;;6.20;84.50;;;;;;5104161;27;20873;-69
2022/01/23 05:09:52;;;;;;;25.92;14.30;;;6.20;84.50;;;;;;5106321;27;20708;-71
2022/01/23 05:12:29;;;;;;;25.25;14.13;;;6.20;84.50;;;;;;5083545;27;20237;-68
2022/01/23 05:14:58;;;;;;;22.98;13.18;;;6.20;84.40;;;;;;5103870;27;20224;-69
2022/01/23 05:17:26;;;;;;;25.42;14.10;;;6.20;84.40;;;;;;5080345;28;20305;-69
2022/01/23 05:19:54;;;;;;;23.10;14.38;;;6.20;84.40;;;;;;5071385;28;20211;-70
2022/01/23 05:22:32;;;;;;;25.75;14.10;;;6.20;84.40;;;;;;5081506;28;20217;-69
2022/01/23 05:25:08;;;;;;;29.00;15.85;;;6.10;84.50;;;;;;5087486;28;20226;-70
2022/01/23 05:27:36;;;;;;;30.45;15.68;;;6.10;84.50;;;;;;5079189;28;20202;-69
2022/01/23 05:30:05;;;;;;;24.65;14.50;;;6.10;84.40;;;;;;5089424;28;20202;-68
2022/01/23 05:32:38;;;;;;;29.13;16.00;;;6.10;84.50;;;;;;5057152;28;20232;-68
2022/01/23 05:35:09;;;;;;;26.25;15.13;;;6.10;84.60;;;;;;5072265;28;20219;-69
2022/01/23 05:37:39;;;;;;;24.65;15.38;;;6.10;84.60;;;;;;5076971;28;20241;-70
2022/01/23 05:40:14;;;;;;;29.63;16.00;;;6.10;84.60;;;;;;5093789;28;20266;-69
2022/01/23 05:42:44;;;;;;;24.15;14.68;;;6.20;84.50;;;;;;5080987;28;20192;-69
2022/01/23 05:45:12;;;;;;;28.50;15.00;;;6.20;84.50;;;;;;5080738;28;20425;-68
2022/01/23 05:47:59;;;;;;;24.42;14.10;;;6.20;84.40;;;;;;5090898;28;20390;-69
2022/01/23 05:50:49;;;;;;;21.83;13.68;;;6.10;84.50;;;;;;5090130;28;20299;-69
2022/01/23 05:53:32;;;;;;;22.17;13.60;;;6.10;84.50;;;;;;5101554;27;20257;-70
2022/01/23 05:56:29;;;;;;;23.77;13.50;;;6.10;84.40;;;;;;5105118;27;20318;-69
2022/01/23 05:59:13;;;;;;;24.67;14.50;;;6.10;84.50;;;;;;5090558;28;20209;-69
2022/01/23 06:01:46;;;;;;;24.45;14.05;;;6.10;84.50;;;;;;5088774;28;20249;-70
2022/01/23 06:04:19;;;;;;;22.23;13.90;;;6.10;84.50;;;;;;5090303;28;20325;-69
2022/01/23 06:07:03;;;;;;;22.73;13.63;;;6.10;84.50;;;;;;5092003;28;20289;-70
2022/01/23 06:09:32;;;;;;;23.50;13.43;;;6.10;84.50;;;;;;5102269;27;20206;-69
2022/01/23 06:12:00;;;;;;;25.65;12.25;;;6.10;84.50;;;;;;5105100;27;20199;-69
2022/01/23 06:14:29;;;;;;;20.58;12.45;;;6.10;84.50;;;;;;5088810;28;20323;-69
2022/01/23 06:16:57;;;;;;;22.50;12.98;;;6.10;84.50;;;;;;5097149;27;20238;-68
2022/01/23 06:19:43;;;;;;;24.30;13.68;;;6.10;84.50;;;;;;5107090;27;20703;-69
2022/01/23 06:22:30;;;;;;;24.95;13.50;;;6.10;84.40;;;;;;5102261;27;20209;-69
2022/01/23 06:25:34;;;;;;;27.98;14.05;;;6.10;84.30;;;;;;5086554;27;20264;-69
2022/01/23 06:28:07;;;;;;;25.13;14.70;;;6.00;84.30;;;;;;5086688;27;20217;-68
2022/01/23 06:30:36;;;;;;;29.75;15.30;;;6.00;84.40;;;;;;5080689;27;20627;-69
2022/01/23 06:33:05;;;;;;;26.38;14.52;;;6.00;84.50;;;;;;5082898;28;20211;-70
2022/01/23 06:35:35;;;;;;;26.20;15.02;;;6.00;84.50;;;;;;5080301;27;20214;-70
2022/01/23 06:38:06;;;;;;;23.90;14.48;;;6.00;84.50;;;;;;5087702;27;20223;-68
2022/01/23 06:40:35;;;;;;;21.95;14.68;;;6.00;84.50;;;;;;5096534;27;21691;-68
2022/01/23 06:43:14;;;;;;;24.00;14.75;;;6.00;84.50;;;;;;5109428;27;20235;-68
2022/01/23 06:46:01;;;;;;;22.17;13.13;;;6.00;84.50;;;;;;5094057;27;20231;-67
2022/01/23 06:48:31;;;;;;;25.33;14.05;;;6.00;84.50;;;;;;5095929;27;20698;-70
2022/01/23 06:50:59;;;;;;;26.70;14.63;;;6.00;84.50;;;;;;5081573;27;20213;-70
2022/01/23 06:53:27;;;;;;;23.25;14.38;;;6.10;84.50;;;;;;5103667;27;20221;-69
2022/01/23 06:55:56;;;;;;;20.95;12.13;;;6.00;84.50;;;;;;5100123;27;20214;-68
2022/01/23 06:58:24;;;;;;;24.83;14.05;;;6.00;84.40;;;;;;5102042;27;20202;-71
2022/01/23 07:00:52;;;;;;;21.55;12.43;;;6.00;84.40;;;;;;5093716;27;20231;-70
2022/01/23 07:03:29;;;;;;;20.35;12.70;;;6.00;84.40;;;;;;5076649;27;20305;-69
2022/01/23 07:06:15;;;;;;;21.38;12.50;;;6.00;84.40;;;;;;5104848;27;20218;-68
2022/01/23 07:09:16;;;;;;;18.95;11.82;;;6.00;84.40;;;;;;5095300;28;20612;-70
2022/01/23 07:12:04;;;;;;;22.45;13.30;;;6.00;84.40;;;;;;5109156;27;20908;-69
2022/01/23 07:14:52;;;;;;;17.98;12.15;;;6.00;84.40;;;;;;5089928;27;20329;-70
2022/01/23 07:17:40;;;;;;;26.92;14.73;;;5.90;84.40;;;;;;5087997;27;20233;-70
2022/01/23 07:20:21;;;;;;;29.30;13.27;;;5.90;84.40;;;;;;5106170;27;20274;-70
2022/01/23 07:22:50;;;;;;;24.50;14.45;;;5.90;84.40;;;;;;5082478;28;20691;-69
2022/01/23 07:25:18;;;;;;;23.15;13.25;;;6.00;84.40;;;;;;5090308;27;20204;-69
2022/01/23 07:27:51;;;;;;;24.40;12.45;;;6.00;84.40;;;;;;5084301;27;20607;-70
2022/01/23 07:30:30;;;;;;;28.23;12.05;;;6.00;84.50;;;;;;5106142;27;20205;-72
2022/01/23 07:32:58;;;;;;;21.23;12.35;;;6.00;84.50;;;;;;5093412;28;20202;-69
2022/01/23 07:35:26;;;;;;;22.63;12.80;;;6.00;84.40;;;;;;5087450;28;20226;-69
2022/01/23 07:37:54;;;;;;;20.40;11.20;;;6.00;84.40;;;;;;5081403;28;20730;-69
2022/01/23 07:40:37;;;;;;;23.58;12.20;;;6.00;84.40;;;;;;5107520;27;20574;-70
2022/01/23 07:43:24;;;;;;;22.20;11.63;;;6.00;84.40;;;;;;5091918;27;20229;-69
2022/01/23 07:46:11;;;;;;;23.80;12.90;;;6.00;84.40;;;;;;5098652;27;20307;-69
2022/01/23 07:48:45;;;;;;;25.92;13.00;;;6.00;84.40;;;;;;5088776;28;20263;-69
2022/01/23 07:51:46;;;;;;;23.88;13.55;;;6.00;84.40;;;;;;5075448;28;20328;-70
2022/01/23 07:54:33;;;;;;;20.17;12.25;;;6.00;84.40;;;;;;5084241;28;20247;-70
2022/01/23 07:57:20;;;;;;;25.00;13.23;;;6.00;84.40;;;;;;5100695;27;20203;-69
2022/01/23 07:59:57;;;;;;;26.02;13.30;;;6.00;84.50;;;;;;5092593;28;20214;-70
2022/01/23 08:02:46;;;;;;;26.42;12.80;;;6.00;84.50;;;;;;5071794;28;20318;-70
2022/01/23 08:05:49;;;;;;;24.45;12.88;;;6.00;84.50;;;;;;5051683;28;20803;-69
2022/01/23 08:08:48;;;;;;;23.58;12.75;;;6.00;84.50;;;;;;5074484;28;20341;-69
2022/01/23 08:11:27;;;;;;;20.05;11.82;;;6.00;84.50;;;;;;5074367;28;20898;-69
2022/01/23 08:13:55;;;;;;;20.55;11.98;;;6.10;84.50;;;;;;5071856;28;20965;-69
2022/01/23 08:16:25;;;;;;;23.15;12.88;;;6.10;84.50;;;;;;5076431;28;20245;-71
2022/01/23 08:18:53;;;;;;;21.58;12.30;;;6.10;84.50;;;;;;5069805;28;20200;-70
2022/01/23 08:21:20;;;;;;;27.17;14.57;;;6.10;84.50;;;;;;5071785;28;20199;-70
2022/01/23 08:23:52;;;;;;;23.35;13.95;;;6.10;84.50;;;;;;5077022;28;20292;-69
2022/01/23 08:26:22;;;;;;;25.52;15.48;;;6.10;84.40;;;;;;5078161;28;20874;-69
2022/01/23 08:28:50;;;;;;;28.42;15.98;;;6.10;84.50;;;;;;5079779;28;20261;-69
2022/01/23 08:31:17;;;;;;;28.77;16.10;;;6.10;84.50;;;;;;5092620;27;20235;-70
2022/01/23 08:33:47;;;;;;;29.13;15.88;;;6.10;84.60;;;;;;5100477;27;20265;-70
2022/01/23 08:36:16;;;;;;;32.03;18.50;;;6.10;84.60;;;;;;5106480;27;20182;-68
2022/01/23 08:38:44;;;;;;;33.03;19.20;;;6.20;84.50;;;;;;5076844;27;20207;-70
2022/01/23 08:43:58;;;;;;;40.72;20.70;;;6.20;84.60;;;;;;5095880;27;20448;-69
2022/01/23 08:46:26;;;;;;;36.08;20.58;;;6.30;84.60;;;;;;5103739;27;20221;-69
2022/01/23 08:48:58;;;;;;;33.78;19.95;;;6.30;84.60;;;;;;5099891;27;20530;-69
2022/01/23 08:51:26;;;;;;;34.72;20.25;;;6.30;84.60;;;;;;5104368;27;20250;-68
2022/01/23 08:53:54;;;;;;;29.13;19.38;;;6.30;84.60;;;;;;5088365;28;20239;-69
2022/01/23 08:56:22;;;;;;;30.88;19.10;;;6.40;84.60;;;;;;5089438;27;20202;-68
2022/01/23 08:58:50;;;;;;;33.47;19.27;;;6.40;84.60;;;;;;5105576;27;20659;-68
2022/01/23 09:01:18;;;;;;;27.60;15.32;;;6.40;84.60;;;;;;5095858;27;20287;-68
2022/01/23 09:03:46;;;;;;;22.92;14.85;;;6.40;84.60;;;;;;5093177;28;20232;-70
2022/01/23 09:06:16;;;;;;;28.05;15.38;;;6.40;84.60;;;;;;5090845;28;20207;-69
2022/01/23 09:08:46;;;;;;;28.30;15.65;;;6.40;84.60;;;;;;5088443;28;20294;-69
2022/01/23 09:11:25;;;;;;;24.77;13.85;;;6.50;84.60;;;;;;5096074;28;20213;-69
2022/01/23 09:14:06;;;;;;;23.52;14.27;;;6.50;84.60;;;;;;5088316;28;20968;-68
2022/01/23 09:16:35;;;;;;;23.15;14.00;;;6.50;84.60;;;;;;5096203;27;20889;-69
2022/01/23 09:19:04;;;;;;;28.13;14.38;;;6.50;84.60;;;;;;5105688;27;20251;-68
2022/01/23 09:21:33;;;;;;;25.95;14.73;;;6.50;84.70;;;;;;5112397;27;20204;-67
2022/01/23 09:24:01;;;;;;;26.63;14.48;;;6.50;84.70;;;;;;5106668;27;20258;-67
2022/01/23 09:26:30;;;;;;;26.15;15.07;;;6.60;84.70;;;;;;5109019;27;20204;-69
2022/01/23 09:29:00;;;;;;;28.27;15.20;;;6.60;84.70;;;;;;5109254;27;20666;-68
2022/01/23 09:31:33;;;;;;;31.55;16.02;;;6.60;84.70;;;;;;5111567;27;20243;-69
2022/01/23 09:34:01;;;;;;;29.15;16.23;;;6.60;84.70;;;;;;5099071;27;20300;-69
2022/01/23 09:36:29;;;;;;;24.50;14.55;;;6.70;84.70;;;;;;5083302;27;20279;-69
2022/01/23 09:38:58;;;;;;;30.42;17.83;;;6.70;84.70;;;;;;5112239;27;20211;-68
2022/01/23 09:41:42;;;;;;;32.45;16.98;;;6.70;84.70;;;;;;5105832;27;20194;-67
2022/01/23 09:44:10;;;;;;;28.45;15.18;;;6.70;84.70;;;;;;5101637;27;20231;-68
2022/01/23 09:46:38;;;;;;;31.50;18.05;;;6.80;84.70;;;;;;5094469;27;21255;-67
2022/01/23 09:49:07;;;;;;;29.92;16.90;;;6.80;84.50;;;;;;5078302;28;20207;-69
2022/01/23 09:51:41;;;;;;;28.88;15.52;;;6.80;84.70;;;;;;5083151;28;20259;-69
2022/01/23 09:54:11;;;;;;;26.45;14.73;;;6.80;84.50;;;;;;5080275;28;20221;-69
2022/01/23 09:56:41;;;;;;;28.30;16.50;;;6.80;84.50;;;;;;5073523;28;20210;-67
2022/01/23 09:59:11;;;;;;;28.70;15.20;;;6.80;84.40;;;;;;5083870;28;20805;-69
2022/01/23 10:01:39;;;;;;;30.85;16.08;;;6.80;84.50;;;;;;5085676;27;20219;-68
2022/01/23 10:04:08;;;;;;;29.67;14.73;;;6.80;84.50;;;;;;5106861;27;20239;-69
2022/01/23 10:06:37;;;;;;;24.95;13.55;;;6.80;84.50;;;;;;5112923;27;20299;-69
2022/01/23 10:09:07;;;;;;;18.80;10.65;;;6.80;84.60;;;;;;5097425;27;20269;-69
2022/01/23 10:11:39;;;;;;;22.27;11.57;;;6.90;84.50;;;;;;5109058;27;20230;-69
2022/01/23 10:14:07;;;;;;;18.27;10.60;;;6.90;84.50;;;;;;5108915;27;20219;-68
2022/01/23 10:16:35;;;;;;;17.40;11.05;;;6.90;84.40;;;;;;5111968;27;20235;-69
2022/01/23 10:19:04;;;;;;;18.73;10.93;;;6.90;84.40;;;;;;5113102;27;20745;-69
2022/01/23 10:21:38;;;;;;;15.68;9.13;;;6.90;84.30;;;;;;5103252;27;20202;-68
2022/01/23 10:24:08;;;;;;;16.88;9.35;;;6.80;84.30;;;;;;5089901;28;21312;-68
2022/01/23 10:26:44;;;;;;;14.13;8.45;;;6.90;84.40;;;;;;5108550;27;20208;-69
2022/01/23 10:29:14;;;;;;;14.60;8.80;;;6.90;84.30;;;;;;5109000;27;20546;-69
2022/01/23 10:32:03;;;;;;;15.70;9.10;;;6.90;84.40;;;;;;5087906;27;20241;-68
2022/01/23 10:34:50;;;;;;;13.45;8.90;;;6.90;84.30;;;;;;5094202;28;20284;-68
2022/01/23 10:37:30;;;;;;;12.60;8.15;;;6.90;84.00;;;;;;5083017;28;20246;-67
2022/01/23 10:40:09;;;;;;;14.95;7.55;;;6.90;84.00;;;;;;5087361;28;20681;-67
2022/01/23 10:46:33;;;;;;;14.80;7.40;;;6.80;83.10;;;;;;5090531;28;20229;-68
2022/01/23 10:48:37;;;;;;;15.27;7.68;;;6.80;84.20;;;;;;5109817;27;20201;-70
2022/01/23 10:51:27;;;;;;;13.30;8.73;;;6.90;84.20;;;;;;5103533;27;20205;-68
2022/01/23 10:54:13;;;;;;;14.77;8.75;;;6.90;83.90;;;;;;5108230;27;20226;-70
2022/01/23 10:57:00;;;;;;;17.75;9.90;;;6.90;84.10;;;;;;5107330;27;20261;-71
2022/01/23 10:59:40;;;;;;;14.43;9.02;;;6.90;84.00;;;;;;5104313;27;20210;-66
2022/01/23 11:02:10;;;;;;;16.15;8.77;;;6.90;83.90;;;;;;5089708;27;21046;-68
2022/01/23 11:04:52;;;;;;;12.50;7.95;;;6.90;84.00;;;;;;5086058;28;20319;-69
2022/01/23 11:07:20;;;;;;;12.98;6.90;;;7.00;83.90;;;;;;5056962;28;20259;-68
2022/01/23 11:09:59;;;;;;;8.13;5.35;;;7.00;84.00;;;;;;5076976;28;20201;-68
2022/01/23 11:12:45;;;;;;;6.68;4.10;;;7.00;83.90;;;;;;5082469;28;20258;-68
2022/01/23 11:18:16;;;;;;;9.65;4.13;;;7.00;83.60;;;;;;5009667;28;20211;-70
2022/01/23 11:20:45;;;;;;;5.68;3.60;;;7.00;83.60;;;;;;5074086;27;20211;-69
2022/01/23 11:23:16;;;;;;;6.07;3.83;;;7.00;83.40;;;;;;5109968;27;20273;-68
2022/01/23 11:26:05;;;;;;;5.88;3.70;;;7.00;83.30;;;;;;5077390;28;20249;-71
2022/01/23 11:28:37;;;;;;;8.73;2.90;;;7.00;82.90;;;;;;5108136;27;20211;-68
2022/01/23 11:31:06;;;;;;;7.40;3.13;;;7.00;83.30;;;;;;5106239;27;20236;-70
2022/01/23 11:33:35;;;;;;;4.25;2.70;;;7.10;83.20;;;;;;5103426;27;20252;-67
2022/01/23 11:36:04;;;;;;;6.13;3.42;;;7.10;83.10;;;;;;5100585;27;21151;-67
2022/01/23 11:38:32;;;;;;;5.32;3.38;;;7.10;82.10;;;;;;5105471;27;20208;-70
2022/01/23 11:54:55;;;;;;;5.85;3.03;;;7.20;82.40;;;;;;5104707;27;20279;-69
2022/01/23 11:57:41;;;;;;;4.47;2.92;;;7.20;82.30;;;;;;5102213;28;20209;-70
2022/01/23 12:00:16;;;;;;;5.13;3.10;;;7.20;82.20;;;;;;5080290;28;20209;-69
2022/01/23 12:02:45;;;;;;;4.38;3.05;;;7.20;82.30;;;;;;5101085;28;20282;-69
2022/01/23 12:05:22;;;;;;;4.85;2.67;;;7.20;82.20;;;;;;5098098;28;20319;-68
2022/01/23 12:08:30;;;;;;;5.55;2.85;;;7.20;82.00;;;;;;5075014;28;20221;-71
2022/01/23 12:11:34;;;;;;;3.80;2.17;;;7.20;81.90;;;;;;5080592;28;20932;-72
2022/01/23 12:17:37;;;;;;;3.72;2.05;;;7.20;81.70;;;;;;5062825;28;20953;-69
2022/01/23 12:20:07;;;;;;;3.53;1.90;;;7.10;80.70;;;;;;5077006;28;20212;-71
2022/01/23 12:22:40;;;;;;;3.30;1.80;;;7.10;80.00;;;;;;5080946;28;20198;-68
2022/01/23 12:25:21;;;;;;;3.90;2.40;;;7.10;81.10;;;;;;5081476;28;20220;-68
2022/01/23 12:28:08;;;;;;;3.53;2.00;;;7.10;81.30;;;;;;5062419;28;20206;-70
2022/01/23 12:30:38;;;;;;;2.95;1.45;;;7.20;81.10;;;;;;5084731;28;20378;-71
2022/01/23 12:33:28;;;;;;;3.65;1.88;;;7.20;81.10;;;;;;5087741;28;20646;-69
2022/01/23 12:36:00;;;;;;;2.60;1.33;;;7.20;80.80;;;;;;5082574;28;20258;-69
2022/01/23 12:38:31;;;;;;;4.53;1.63;;;7.20;79.20;;;;;;5083986;28;20207;-69
2022/01/23 12:41:21;;;;;;;2.42;1.08;;;7.20;79.60;;;;;;5081842;28;20209;-71
2022/01/23 12:43:51;;;;;;;3.80;1.77;;;7.20;79.90;;;;;;5083859;28;20230;-71
2022/01/23 12:46:34;;;;;;;5.03;3.30;;;7.20;80.00;;;;;;5063369;28;20279;-69
2022/01/23 12:49:22;;;;;;;5.78;3.05;;;7.10;79.20;;;;;;5083110;28;20250;-72
2022/01/23 12:51:51;;;;;;;6.75;4.57;;;7.10;79.60;;;;;;5086051;28;20252;-72
2022/01/23 12:54:25;;;;;;;5.20;3.38;;;7.10;79.20;;;;;;5075179;28;20669;-69
2022/01/23 12:56:54;;;;;;;7.55;5.05;;;7.10;79.60;;;;;;5078714;28;20267;-68
2022/01/23 12:59:30;;;;;;;2.75;1.50;;;7.10;79.10;;;;;;5081034;28;20252;-70
2022/01/23 13:02:05;;;;;;;4.55;2.05;;;7.00;76.30;;;;;;5079961;28;20231;-72
2022/01/23 13:04:39;;;;;;;4.00;2.15;;;7.00;77.60;;;;;;5079728;28;20240;-69
2022/01/23 13:07:20;;;;;;;4.40;2.42;;;7.00;77.70;;;;;;5063459;28;20209;-69
2022/01/23 13:10:03;;;;;;;4.18;2.72;;;7.00;78.10;;;;;;5083211;28;20209;-72
2022/01/23 13:12:56;;;;;;;5.03;2.55;;;7.00;78.30;;;;;;5088112;28;20240;-71
2022/01/23 13:18:30;;;;;;;5.03;3.00;;;7.10;78.60;;;;;;5082271;28;20978;-70
2022/01/23 13:29:57;;;;;;;3.75;2.10;;;7.20;77.50;;;;;;4999171;28;21038;-69
2022/01/23 13:32:35;;;;;;;3.40;1.90;;;7.20;78.30;;;;;;5061098;28;20245;-69
2022/01/23 13:35:09;;;;;;;2.78;1.20;;;7.20;76.80;;;;;;5062861;28;20589;-69
2022/01/23 13:37:40;;;;;;;10.65;6.13;;;7.20;77.10;;;;;;5065046;28;20226;-69
2022/01/23 13:40:13;;;;;;;3.65;1.95;;;7.20;76.80;;;;;;5065274;28;20206;-69
2022/01/23 13:47:50;;;;;;;5.10;3.42;;;7.20;77.40;;;;;;5061015;28;20236;-68
2022/01/23 13:51:43;;;;;;;4.00;2.20;;;7.30;77.50;;;;;;5074906;28;20212;-69
2022/01/23 13:59:53;;;;;;;3.60;1.88;;;7.30;77.10;;;;;;5081888;28;20204;-68
2022/01/23 14:02:24;;;;;;;3.40;1.73;;;7.30;76.90;;;;;;5077394;28;20236;-68
2022/01/23 14:04:56;;;;;;;4.03;1.60;;;7.30;77.00;;;;;;5075165;28;20221;-68
2022/01/23 14:07:27;;;;;;;3.28;1.80;;;7.20;77.20;;;;;;5079253;28;20194;-68
2022/01/23 14:09:59;;;;;;;2.78;1.58;;;7.20;77.00;;;;;;5077207;28;20210;-68
2022/01/23 14:12:32;;;;;;;3.22;1.65;;;7.20;76.60;;;;;;5078770;28;20241;-68
2022/01/23 14:15:19;;;;;;;4.10;2.10;;;7.20;76.80;;;;;;5081156;28;20217;-68
2022/01/23 14:17:57;;;;;;;3.47;1.60;;;7.20;76.90;;;;;;5063886;28;20220;-68
2022/01/23 14:20:26;;;;;;;3.05;1.67;;;7.30;76.80;;;;;;5051687;28;20541;-69
2022/01/23 14:22:56;;;;;;;2.90;1.35;;;7.20;76.50;;;;;;5063712;28;20309;-68
2022/01/23 14:25:27;;;;;;;3.58;1.40;;;7.20;76.60;;;;;;5061819;28;20255;-68
2022/01/23 14:28:07;;;;;;;2.50;1.20;;;7.20;76.60;;;;;;5065969;28;20719;-69
2022/01/23 14:30:44;;;;;;;3.90;2.03;;;7.20;76.60;;;;;;5064070;28;20232;-68
2022/01/23 14:33:15;;;;;;;3.85;2.38;;;7.20;76.20;;;;;;5080578;28;20550;-70
2022/01/23 14:35:43;;;;;;;2.50;1.27;;;7.20;76.50;;;;;;5083006;28;20251;-70
2022/01/23 14:38:13;;;;;;;4.00;1.92;;;7.20;76.50;;;;;;5081482;28;20259;-69
2022/01/23 14:40:54;;;;;;;3.70;2.10;;;7.20;76.50;;;;;;5083227;28;20254;-70
2022/01/23 14:43:29;;;;;;;3.30;2.05;;;7.30;76.50;;;;;;5081897;28;20233;-70
2022/01/23 14:45:58;;;;;;;4.50;1.90;;;7.20;76.50;;;;;;5082957;28;20289;-69
2022/01/23 14:48:27;;;;;;;3.65;1.90;;;7.30;76.50;;;;;;5086585;28;20194;-70
2022/01/23 14:50:56;;;;;;;3.67;1.90;;;7.30;76.30;;;;;;5083068;28;20213;-69
2022/01/23 14:53:25;;;;;;;3.95;2.20;;;7.30;76.20;;;;;;5087191;28;20225;-68
2022/01/23 14:55:58;;;;;;;5.22;1.85;;;7.30;76.30;;;;;;5085555;28;20205;-67
2022/01/23 14:58:26;;;;;;;4.50;2.00;;;7.30;76.30;;;;;;5088778;28;20661;-70
2022/01/23 15:00:56;;;;;;;3.78;2.10;;;7.30;76.30;;;;;;5083104;28;20238;-71
2022/01/23 15:03:27;;;;;;;5.97;2.10;;;7.30;76.30;;;;;;5085721;28;20247;-67
2022/01/23 15:05:55;;;;;;;4.45;2.05;;;7.30;76.30;;;;;;5086734;28;20202;-70
2022/01/23 15:08:25;;;;;;;3.28;1.90;;;7.30;76.20;;;;;;5078103;28;21003;-69
2022/01/23 15:10:56;;;;;;;4.97;2.25;;;7.30;76.20;;;;;;5081794;28;20201;-70
2022/01/23 15:13:25;;;;;;;21.58;11.10;;;7.30;76.10;;;;;;5087114;28;20226;-72
2022/01/23 15:15:55;;;;;;;10.02;4.80;;;7.20;76.10;;;;;;5080086;28;20236;-70
2022/01/23 15:18:23;;;;;;;10.70;5.32;;;7.20;75.90;;;;;;5074548;28;20232;-70
2022/01/23 15:20:52;;;;;;;4.80;2.20;;;7.20;76.10;;;;;;5090724;28;20664;-71
2022/01/23 15:23:20;;;;;;;5.20;2.50;;;7.20;76.10;;;;;;5072575;28;20628;-69
2022/01/23 15:25:49;;;;;;;3.88;1.90;;;7.20;76.20;;;;;;5073771;28;20193;-69
2022/01/23 15:28:18;;;;;;;3.53;1.70;;;7.20;76.30;;;;;;5081536;28;20207;-71
2022/01/23 15:30:49;;;;;;;4.57;2.10;;;7.20;76.20;;;;;;5080104;28;20225;-70
2022/01/23 15:33:17;;;;;;;4.10;1.83;;;7.20;76.20;;;;;;5081800;28;20962;-70
2022/01/23 15:35:47;;;;;;;3.92;2.53;;;7.20;76.20;;;;;;5082132;28;20212;-74
2022/01/23 15:38:16;;;;;;;3.38;2.10;;;7.20;76.20;;;;;;5082899;28;20221;-69
2022/01/23 15:40:44;;;;;;;5.05;2.10;;;7.20;76.10;;;;;;5082409;28;20838;-71
2022/01/23 15:43:12;;;;;;;5.07;2.60;;;7.20;76.20;;;;;;5081970;28;20209;-71
2022/01/23 15:45:45;;;;;;;4.43;2.30;;;7.20;76.20;;;;;;5083485;28;20592;-71
2022/01/23 15:48:13;;;;;;;3.83;2.17;;;7.20;76.10;;;;;;5084140;28;20195;-72
2022/01/23 15:50:42;;;;;;;3.88;2.20;;;7.20;76.10;;;;;;5078812;28;20412;-69
2022/01/23 15:53:11;;;;;;;4.93;2.55;;;7.20;76.10;;;;;;5081223;28;20205;-71
2022/01/23 15:55:39;;;;;;;3.55;1.80;;;7.20;76.10;;;;;;5053967;28;20259;-71
2022/01/23 15:58:07;;;;;;;3.95;2.00;;;7.20;76.20;;;;;;5071118;28;20237;-69
2022/01/23 16:00:35;;;;;;;3.80;2.20;;;7.20;76.10;;;;;;5082945;28;20240;-71
2022/01/23 16:03:04;;;;;;;3.72;2.00;;;7.20;76.20;;;;;;5080762;28;20200;-71
2022/01/23 16:05:33;;;;;;;3.42;2.00;;;7.20;76.20;;;;;;5087148;28;20221;-71